Time;durP1;ratioP1;P1;durP2;ratioP2;P2;SDS_P1;SDS_P2;PMS_P1;PMS_P2;Temp;Humidity;BMP_temperature;BMP_pressure;BME280_temperature;BME280_humidity;BME280_pressure;Samples;Min_cycle;Max_cycle;Signal;HPM_P1;HPM_P2
2023/03/29 00:00:45;;;;;;;2.05;1.00;;;6.40;99.90;;;;;;4998776;28;20041;-75
2023/03/29 00:03:12;;;;;;;5.63;1.75;;;6.40;99.90;;;;;;4999961;28;20120;-73
2023/03/29 00:05:44;;;;;;;9.30;1.63;;;6.40;99.90;;;;;;5000150;28;20041;-76
2023/03/29 00:08:13;;;;;;;3.13;0.75;;;6.30;99.90;;;;;;5001218;28;20045;-74
2023/03/29 00:10:48;;;;;;;5.18;0.80;;;6.40;99.90;;;;;;5022449;28;20176;-77
2023/03/29 00:13:14;;;;;;;1.83;0.90;;;6.40;99.90;;;;;;5001777;28;20045;-73
2023/03/29 00:15:40;;;;;;;2.42;0.82;;;6.40;99.90;;;;;;4995990;28;20030;-73
2023/03/29 00:18:06;;;;;;;3.63;0.73;;;6.40;99.90;;;;;;4998258;28;20380;-73
2023/03/29 00:20:31;;;;;;;3.33;0.80;;;6.40;99.90;;;;;;4999191;28;20532;-77
2023/03/29 00:23:00;;;;;;;2.40;0.88;;;6.30;99.90;;;;;;5001229;28;20044;-75
2023/03/29 00:25:25;;;;;;;4.60;1.20;;;6.30;99.90;;;;;;4998262;28;20034;-73
2023/03/29 00:27:54;;;;;;;7.32;1.33;;;6.20;99.90;;;;;;4995705;28;20033;-74
2023/03/29 00:30:20;;;;;;;1.75;0.80;;;6.30;99.90;;;;;;4996658;28;20046;-75
2023/03/29 00:32:45;;;;;;;2.28;1.00;;;6.20;99.90;;;;;;4995483;28;20050;-74
2023/03/29 00:35:11;;;;;;;1.83;0.82;;;6.30;99.90;;;;;;4999100;28;20034;-74
2023/03/29 00:37:37;;;;;;;3.20;1.00;;;6.20;99.90;;;;;;4996244;28;20050;-74
2023/03/29 00:40:08;;;;;;;3.75;1.00;;;6.20;99.90;;;;;;4997080;28;20038;-74
2023/03/29 00:42:34;;;;;;;1.80;0.63;;;6.30;99.90;;;;;;5022336;28;20042;-75
2023/03/29 00:45:08;;;;;;;5.35;1.10;;;6.30;99.90;;;;;;4995674;28;20026;-73
2023/03/29 00:47:49;;;;;;;5.13;0.85;;;6.30;99.90;;;;;;5009551;28;20042;-73
2023/03/29 00:50:24;;;;;;;4.10;1.00;;;6.30;99.90;;;;;;5001376;28;20038;-73
2023/03/29 00:53:16;;;;;;;2.78;1.35;;;6.30;99.90;;;;;;4994355;28;20422;-74
2023/03/29 00:55:52;;;;;;;3.97;0.73;;;6.40;99.90;;;;;;4994076;28;20613;-77
2023/03/29 00:58:25;;;;;;;1.98;0.90;;;6.40;99.90;;;;;;5000931;28;20509;-73
2023/03/29 01:01:00;;;;;;;1.88;0.80;;;6.40;99.90;;;;;;5008618;28;20104;-75
2023/03/29 01:03:31;;;;;;;4.95;1.30;;;6.40;99.90;;;;;;4999851;28;20068;-76
2023/03/29 01:06:01;;;;;;;2.88;0.80;;;6.40;99.90;;;;;;4999356;28;20046;-76
2023/03/29 01:08:52;;;;;;;3.38;1.08;;;6.50;99.90;;;;;;5000125;28;20489;-74
2023/03/29 01:11:33;;;;;;;3.85;0.73;;;6.50;99.90;;;;;;4994566;28;20042;-74
2023/03/29 01:14:03;;;;;;;2.65;0.95;;;6.50;99.90;;;;;;5001851;28;20180;-74
2023/03/29 01:16:31;;;;;;;2.50;1.08;;;6.50;99.90;;;;;;5001646;28;20040;-72
2023/03/29 01:18:59;;;;;;;1.95;1.23;;;6.50;99.90;;;;;;5016542;28;20530;-75
2023/03/29 01:21:28;;;;;;;6.03;1.00;;;6.60;99.90;;;;;;5003663;28;20104;-74
2023/03/29 01:24:19;;;;;;;5.97;0.90;;;6.60;99.90;;;;;;5014849;28;20586;-75
2023/03/29 01:27:07;;;;;;;2.35;0.65;;;6.60;99.90;;;;;;5004309;28;20397;-75
2023/03/29 01:30:13;;;;;;;4.50;1.75;;;6.60;99.90;;;;;;5027658;28;20048;-76
2023/03/29 01:32:46;;;;;;;2.03;0.80;;;6.60;99.90;;;;;;4987697;28;20088;-76
2023/03/29 01:35:23;;;;;;;3.80;1.20;;;6.60;99.90;;;;;;5002216;28;20026;-74
2023/03/29 01:38:06;;;;;;;7.13;1.40;;;6.70;99.90;;;;;;4998243;28;20034;-74
2023/03/29 01:40:32;;;;;;;5.35;1.27;;;6.70;99.90;;;;;;4997498;28;20030;-74
2023/03/29 01:43:20;;;;;;;4.63;1.10;;;6.70;99.90;;;;;;4998215;28;20411;-74
2023/03/29 01:45:59;;;;;;;2.83;1.17;;;6.70;99.90;;;;;;4994968;28;20587;-75
2023/03/29 01:48:34;;;;;;;4.55;1.33;;;6.70;99.90;;;;;;5000996;28;20063;-73
2023/03/29 01:51:08;;;;;;;3.90;1.10;;;6.70;99.90;;;;;;4998834;28;20042;-75
2023/03/29 01:53:55;;;;;;;3.33;1.00;;;6.80;99.90;;;;;;4996071;28;20119;-74
2023/03/29 01:56:24;;;;;;;6.47;1.17;;;6.70;99.90;;;;;;4999165;28;20058;-74
2023/03/29 01:58:55;;;;;;;1.70;0.50;;;6.70;99.90;;;;;;5000427;28;20038;-72
2023/03/29 02:01:26;;;;;;;3.10;0.82;;;6.70;99.90;;;;;;4997827;28;20125;-74
2023/03/29 02:03:56;;;;;;;4.38;0.85;;;6.80;99.90;;;;;;4996176;28;20050;-76
2023/03/29 02:06:26;;;;;;;2.65;1.33;;;6.80;99.90;;;;;;4996125;28;20068;-76
2023/03/29 02:08:53;;;;;;;3.28;1.13;;;6.80;99.90;;;;;;5011107;28;20034;-75
2023/03/29 02:11:22;;;;;;;6.10;0.73;;;6.80;99.90;;;;;;4999947;28;20029;-76
2023/03/29 02:13:47;;;;;;;2.70;1.05;;;6.80;99.90;;;;;;4998985;28;20033;-74
2023/03/29 02:16:14;;;;;;;5.80;1.40;;;6.80;99.90;;;;;;5007127;28;20041;-75
2023/03/29 02:18:42;;;;;;;3.28;1.30;;;6.80;99.90;;;;;;5006256;28;20034;-72
2023/03/29 02:21:34;;;;;;;6.35;1.38;;;6.80;99.90;;;;;;5002080;28;20129;-73
2023/03/29 02:24:05;;;;;;;4.35;1.13;;;6.90;99.90;;;;;;4988323;28;20400;-74
2023/03/29 02:26:31;;;;;;;2.00;0.75;;;6.90;99.90;;;;;;4994250;28;20042;-76
2023/03/29 02:28:59;;;;;;;3.78;1.00;;;6.90;99.90;;;;;;5006130;28;20617;-73
2023/03/29 02:31:32;;;;;;;5.38;1.30;;;6.80;99.90;;;;;;5009581;28;20038;-75
2023/03/29 02:34:06;;;;;;;4.07;1.00;;;6.80;99.90;;;;;;5005649;28;20477;-73
2023/03/29 02:36:46;;;;;;;2.38;1.30;;;6.90;99.90;;;;;;5007234;28;20037;-75
2023/03/29 02:39:14;;;;;;;4.18;1.00;;;6.90;99.90;;;;;;5007870;28;20036;-74
2023/03/29 02:41:42;;;;;;;2.90;1.00;;;6.90;99.90;;;;;;5005682;28;20034;-74
2023/03/29 02:44:12;;;;;;;4.15;1.30;;;6.90;99.90;;;;;;5003917;28;20088;-73
2023/03/29 02:46:41;;;;;;;4.90;1.10;;;6.90;99.90;;;;;;5016666;28;20034;-74
2023/03/29 02:49:08;;;;;;;4.25;1.20;;;6.90;99.90;;;;;;5005503;28;20033;-74
2023/03/29 02:51:36;;;;;;;2.80;1.10;;;6.90;99.90;;;;;;5003318;28;20633;-74
2023/03/29 02:54:20;;;;;;;3.38;1.40;;;7.00;99.90;;;;;;5021099;28;20038;-74
2023/03/29 02:56:47;;;;;;;4.07;1.40;;;7.00;99.90;;;;;;5002050;28;20034;-73
2023/03/29 02:59:23;;;;;;;4.22;1.35;;;7.00;99.90;;;;;;5004195;28;20048;-74
2023/03/29 03:01:51;;;;;;;4.32;1.75;;;7.10;99.90;;;;;;5003305;28;20046;-73
2023/03/29 03:04:17;;;;;;;2.65;0.93;;;7.00;99.90;;;;;;5005296;28;20044;-73
2023/03/29 03:06:43;;;;;;;3.10;1.50;;;7.10;99.90;;;;;;5002149;28;20405;-74
2023/03/29 03:09:08;;;;;;;2.25;1.10;;;7.10;99.90;;;;;;5003473;28;20038;-72
2023/03/29 03:11:34;;;;;;;4.80;1.25;;;7.10;99.90;;;;;;5003587;28;20049;-74
2023/03/29 03:14:00;;;;;;;2.90;1.08;;;7.10;99.90;;;;;;5001912;28;20395;-74
2023/03/29 03:16:26;;;;;;;10.02;2.20;;;7.10;99.90;;;;;;5020705;28;20053;-72
2023/03/29 03:18:55;;;;;;;1.70;0.88;;;7.10;99.90;;;;;;5001987;28;20414;-74
2023/03/29 03:21:21;;;;;;;4.85;1.13;;;7.10;99.90;;;;;;5002912;28;20658;-74
2023/03/29 03:23:48;;;;;;;1.83;0.80;;;7.10;99.90;;;;;;4999515;28;20061;-74
2023/03/29 03:26:16;;;;;;;5.72;1.17;;;7.10;99.90;;;;;;5003276;28;20038;-74
2023/03/29 03:28:42;;;;;;;5.47;1.33;;;7.20;99.90;;;;;;5001153;28;20069;-75
2023/03/29 03:31:08;;;;;;;2.70;1.33;;;7.20;99.90;;;;;;5003099;28;20029;-74
2023/03/29 03:33:33;;;;;;;3.50;1.08;;;7.10;99.90;;;;;;5025007;28;20049;-75
2023/03/29 03:36:05;;;;;;;9.65;1.35;;;7.20;99.90;;;;;;5000867;28;20037;-75
2023/03/29 03:38:31;;;;;;;4.68;1.40;;;7.10;99.90;;;;;;5007042;28;20676;-74
2023/03/29 03:40:58;;;;;;;5.13;1.35;;;7.10;99.90;;;;;;5001479;28;20042;-74
2023/03/29 03:43:24;;;;;;;6.30;1.67;;;7.10;99.90;;;;;;5000162;28;20026;-73
2023/03/29 03:45:49;;;;;;;4.13;1.50;;;7.10;99.90;;;;;;5000319;28;20038;-73
2023/03/29 03:48:16;;;;;;;3.60;1.80;;;7.20;99.90;;;;;;5003257;28;20029;-75
2023/03/29 03:50:52;;;;;;;7.18;1.10;;;7.20;99.90;;;;;;5001949;28;20077;-74
2023/03/29 03:53:18;;;;;;;4.18;1.13;;;7.20;99.90;;;;;;5012928;28;20530;-74
2023/03/29 03:55:52;;;;;;;4.25;0.90;;;7.20;99.90;;;;;;5001680;28;20713;-74
2023/03/29 03:58:18;;;;;;;3.25;1.30;;;7.20;99.90;;;;;;5000332;28;20037;-74
2023/03/29 04:00:47;;;;;;;5.72;1.30;;;7.20;99.90;;;;;;4997899;28;20038;-76
2023/03/29 04:03:12;;;;;;;3.75;1.15;;;7.10;99.90;;;;;;4999027;28;20402;-74
2023/03/29 04:05:39;;;;;;;1.67;0.93;;;7.20;99.90;;;;;;5000486;28;20034;-74
2023/03/29 04:08:06;;;;;;;4.15;1.08;;;7.20;99.90;;;;;;5010206;28;20038;-74
2023/03/29 04:10:33;;;;;;;2.83;1.58;;;7.20;99.90;;;;;;4998963;28;20109;-74
2023/03/29 04:13:03;;;;;;;3.03;1.10;;;7.20;99.90;;;;;;4996703;28;20120;-74
2023/03/29 04:15:32;;;;;;;4.15;1.13;;;7.20;99.90;;;;;;5000994;28;20038;-73
2023/03/29 04:17:59;;;;;;;9.65;2.33;;;7.20;99.90;;;;;;4998399;28;20042;-75
2023/03/29 04:20:25;;;;;;;2.90;1.20;;;7.20;99.90;;;;;;4998362;28;20900;-77
2023/03/29 04:22:51;;;;;;;3.45;1.23;;;7.20;99.90;;;;;;4999638;28;20040;-76
2023/03/29 04:25:17;;;;;;;7.20;1.30;;;7.20;99.90;;;;;;5000458;28;20037;-76
2023/03/29 04:27:44;;;;;;;3.88;0.98;;;7.20;99.90;;;;;;4998962;28;20037;-74
2023/03/29 04:30:11;;;;;;;3.63;1.17;;;7.20;99.90;;;;;;4998410;28;20538;-75
2023/03/29 04:32:36;;;;;;;2.33;1.13;;;7.20;99.90;;;;;;4997908;28;20042;-73
2023/03/29 04:35:03;;;;;;;3.22;1.70;;;7.20;99.90;;;;;;4997452;28;20030;-73
2023/03/29 04:37:30;;;;;;;2.38;1.23;;;7.20;99.90;;;;;;5015827;28;20037;-73
2023/03/29 04:39:59;;;;;;;4.05;1.20;;;7.20;99.90;;;;;;4998372;28;20034;-74
2023/03/29 04:42:25;;;;;;;7.60;1.30;;;7.30;99.90;;;;;;4999114;28;20546;-75
2023/03/29 04:44:52;;;;;;;4.57;1.15;;;7.30;99.90;;;;;;4996609;28;20041;-73
2023/03/29 04:47:18;;;;;;;8.50;1.55;;;7.20;99.90;;;;;;4998008;28;20626;-74
2023/03/29 04:49:44;;;;;;;4.00;1.27;;;7.20;99.90;;;;;;5002389;28;20030;-73
2023/03/29 04:52:13;;;;;;;3.42;1.10;;;7.30;99.90;;;;;;4996539;28;20037;-75
2023/03/29 04:54:39;;;;;;;6.53;2.08;;;7.30;99.90;;;;;;5024061;28;20042;-74
2023/03/29 04:57:06;;;;;;;3.17;1.08;;;7.30;99.90;;;;;;4991923;28;20364;-75
2023/03/29 04:59:32;;;;;;;3.70;1.10;;;7.30;99.90;;;;;;4996023;28;20081;-75
2023/03/29 05:01:58;;;;;;;7.38;1.75;;;7.30;99.90;;;;;;4990915;28;20458;-74
2023/03/29 05:04:24;;;;;;;5.38;1.38;;;7.30;99.90;;;;;;4992543;28;20030;-76
2023/03/29 05:06:49;;;;;;;3.95;1.42;;;7.30;99.90;;;;;;4992517;28;20038;-75
2023/03/29 05:09:16;;;;;;;2.95;1.17;;;7.30;99.90;;;;;;4994773;28;20125;-74
2023/03/29 05:11:41;;;;;;;4.93;1.50;;;7.40;99.90;;;;;;4995747;28;20045;-75
2023/03/29 05:14:08;;;;;;;6.13;1.75;;;7.30;99.90;;;;;;4994182;28;20034;-75
2023/03/29 05:16:34;;;;;;;3.78;1.13;;;7.40;99.90;;;;;;4997232;28;20037;-74
2023/03/29 05:19:00;;;;;;;4.57;1.98;;;7.40;99.90;;;;;;4995305;28;20124;-73
2023/03/29 05:21:27;;;;;;;6.18;2.03;;;7.50;99.90;;;;;;4997571;28;20499;-74
2023/03/29 05:23:53;;;;;;;4.97;1.63;;;7.40;99.90;;;;;;4989754;28;20091;-73
2023/03/29 05:26:22;;;;;;;5.80;1.55;;;7.40;99.90;;;;;;5001547;28;20045;-73
2023/03/29 05:28:49;;;;;;;3.88;1.23;;;7.40;99.90;;;;;;5001818;28;20034;-75
2023/03/29 05:31:15;;;;;;;2.45;1.10;;;7.40;99.90;;;;;;5002906;28;20068;-73
2023/03/29 05:33:44;;;;;;;3.78;2.00;;;7.40;99.90;;;;;;4999112;28;20475;-74
2023/03/29 05:36:12;;;;;;;3.25;1.17;;;7.50;99.90;;;;;;4999750;28;20513;-72
2023/03/29 05:38:41;;;;;;;2.00;1.00;;;7.50;99.90;;;;;;4998228;28;20033;-72
2023/03/29 05:41:07;;;;;;;4.60;1.35;;;7.50;99.90;;;;;;4996487;28;20046;-75
2023/03/29 05:43:33;;;;;;;3.65;1.17;;;7.50;99.90;;;;;;5000530;28;20034;-73
2023/03/29 05:45:59;;;;;;;3.63;1.33;;;7.50;99.90;;;;;;5000376;28;20037;-74
2023/03/29 05:48:26;;;;;;;9.63;1.95;;;7.50;99.90;;;;;;5002844;28;20026;-73
2023/03/29 05:50:53;;;;;;;2.50;1.15;;;7.60;99.90;;;;;;5003677;28;20033;-74
2023/03/29 05:53:20;;;;;;;7.68;1.50;;;7.60;99.90;;;;;;5006634;28;20061;-74
2023/03/29 05:55:46;;;;;;;11.55;2.03;;;7.60;99.90;;;;;;5004063;28;20049;-75
2023/03/29 05:58:12;;;;;;;4.50;1.60;;;7.70;99.90;;;;;;5003299;28;20049;-74
2023/03/29 06:00:39;;;;;;;6.03;1.52;;;7.70;99.90;;;;;;5000113;28;20053;-72
2023/03/29 06:03:06;;;;;;;5.05;1.50;;;7.60;99.90;;;;;;5004339;28;20030;-72
2023/03/29 06:05:31;;;;;;;3.15;1.60;;;7.60;99.90;;;;;;5005439;28;20033;-75
2023/03/29 06:07:57;;;;;;;5.38;1.90;;;7.70;99.90;;;;;;5001643;28;20093;-74
2023/03/29 06:10:23;;;;;;;5.00;1.50;;;7.80;99.90;;;;;;5002036;28;20029;-72
2023/03/29 06:12:50;;;;;;;2.88;1.25;;;7.80;99.90;;;;;;5003155;28;20125;-74
2023/03/29 06:15:16;;;;;;;4.40;1.63;;;7.90;99.90;;;;;;5003307;28;20033;-74
2023/03/29 06:17:44;;;;;;;4.68;1.75;;;7.90;99.90;;;;;;5002777;28;20034;-73
2023/03/29 06:20:11;;;;;;;4.97;2.05;;;7.90;99.90;;;;;;5000647;28;20030;-74
2023/03/29 06:22:37;;;;;;;6.72;1.77;;;8.00;99.90;;;;;;5000896;28;20092;-74
2023/03/29 06:25:04;;;;;;;2.75;1.30;;;8.10;99.90;;;;;;5002522;28;20548;-74
2023/03/29 06:27:33;;;;;;;2.80;1.70;;;8.10;99.90;;;;;;5018754;28;20034;-75
2023/03/29 06:29:59;;;;;;;9.35;1.75;;;8.10;99.90;;;;;;5018341;28;20080;-73
2023/03/29 06:32:25;;;;;;;5.30;2.13;;;8.10;99.90;;;;;;5002749;28;20026;-74
2023/03/29 06:34:51;;;;;;;5.75;1.90;;;8.20;99.90;;;;;;5002153;28;20088;-72
2023/03/29 06:37:17;;;;;;;3.35;1.67;;;8.20;99.90;;;;;;5007659;28;21579;-75
2023/03/29 06:39:42;;;;;;;8.07;1.90;;;8.40;99.90;;;;;;5000906;28;20026;-76
2023/03/29 06:42:08;;;;;;;6.30;1.83;;;8.50;99.90;;;;;;5002433;28;20037;-74
2023/03/29 06:44:35;;;;;;;6.60;2.25;;;8.50;99.90;;;;;;5001067;28;20037;-73
2023/03/29 06:47:00;;;;;;;4.88;2.25;;;8.60;99.90;;;;;;5001528;28;20041;-75
2023/03/29 06:49:26;;;;;;;5.80;1.83;;;8.60;99.90;;;;;;5004919;28;20041;-74
2023/03/29 06:51:52;;;;;;;8.45;2.08;;;8.70;99.90;;;;;;5002096;28;20034;-74
2023/03/29 06:54:18;;;;;;;8.10;2.80;;;8.80;99.90;;;;;;5003842;28;20041;-74
2023/03/29 06:56:46;;;;;;;3.08;1.58;;;8.80;99.90;;;;;;5001925;28;20038;-75
2023/03/29 06:59:12;;;;;;;5.28;1.90;;;8.90;99.90;;;;;;5002183;28;20045;-75
2023/03/29 07:01:38;;;;;;;6.68;1.90;;;8.90;99.90;;;;;;5002532;28;20127;-75
2023/03/29 07:04:07;;;;;;;4.60;1.55;;;8.90;99.90;;;;;;5018285;28;20494;-74
2023/03/29 07:06:35;;;;;;;11.10;2.97;;;9.00;99.90;;;;;;5000263;28;20069;-72
2023/03/29 07:09:05;;;;;;;3.65;1.70;;;8.90;99.90;;;;;;5002887;28;20033;-73
2023/03/29 07:11:30;;;;;;;8.35;2.10;;;9.00;99.90;;;;;;5001956;28;20152;-75
2023/03/29 07:13:56;;;;;;;6.43;1.70;;;9.00;99.90;;;;;;5000382;28;20042;-72
2023/03/29 07:16:22;;;;;;;6.40;1.90;;;9.00;99.90;;;;;;4997484;28;20037;-73
2023/03/29 07:18:47;;;;;;;4.90;1.88;;;9.10;99.90;;;;;;4998683;28;20521;-72
2023/03/29 07:21:13;;;;;;;4.18;1.83;;;9.10;99.90;;;;;;4998291;28;20116;-74
2023/03/29 07:23:39;;;;;;;4.55;1.77;;;9.20;99.90;;;;;;4997762;28;20053;-73
2023/03/29 07:26:09;;;;;;;4.10;2.75;;;9.20;99.90;;;;;;4996991;28;20120;-72
2023/03/29 07:28:42;;;;;;;3.57;1.63;;;9.30;99.90;;;;;;4999066;28;20042;-74
2023/03/29 07:31:10;;;;;;;6.65;2.30;;;9.40;99.90;;;;;;4999071;28;20048;-75
2023/03/29 07:33:37;;;;;;;6.95;2.58;;;9.50;99.90;;;;;;4995495;28;20418;-73
2023/03/29 07:36:03;;;;;;;4.78;2.03;;;9.60;99.90;;;;;;5001614;28;20080;-72
2023/03/29 07:38:30;;;;;;;5.60;1.90;;;9.60;99.90;;;;;;4995592;28;20546;-73
2023/03/29 07:40:56;;;;;;;7.18;2.60;;;9.70;99.90;;;;;;4998168;28;20037;-74
2023/03/29 07:43:22;;;;;;;6.20;1.83;;;9.80;99.90;;;;;;4999712;28;20085;-72
2023/03/29 07:45:49;;;;;;;6.70;2.15;;;9.80;99.90;;;;;;4997388;28;20127;-74
2023/03/29 07:48:16;;;;;;;5.32;2.20;;;9.90;99.90;;;;;;4998193;28;20037;-72
2023/03/29 07:50:42;;;;;;;6.22;2.10;;;9.90;99.90;;;;;;4997490;28;20049;-75
2023/03/29 07:53:08;;;;;;;4.03;2.15;;;9.90;99.90;;;;;;4997581;28;20038;-75
2023/03/29 07:55:34;;;;;;;9.52;2.80;;;9.90;99.90;;;;;;5001284;28;20061;-74
2023/03/29 07:58:00;;;;;;;6.70;2.40;;;9.90;99.90;;;;;;5000186;28;20026;-72
2023/03/29 08:00:26;;;;;;;5.55;2.60;;;9.90;99.90;;;;;;4998339;28;20140;-73
2023/03/29 08:02:52;;;;;;;8.45;2.58;;;9.90;99.90;;;;;;4998916;28;20044;-74
2023/03/29 08:05:20;;;;;;;6.90;2.58;;;9.90;99.90;;;;;;4999405;28;20054;-75
2023/03/29 08:07:46;;;;;;;9.70;2.50;;;9.90;99.90;;;;;;4998468;28;20029;-78
2023/03/29 08:10:18;;;;;;;11.38;2.80;;;9.90;99.90;;;;;;4997880;28;20026;-72
2023/03/29 08:12:45;;;;;;;5.18;2.38;;;10.00;99.90;;;;;;5000267;28;20042;-72
2023/03/29 08:15:12;;;;;;;6.10;2.38;;;10.00;99.90;;;;;;4998764;28;20643;-73
2023/03/29 08:17:37;;;;;;;7.10;2.95;;;10.10;99.90;;;;;;5000673;28;20973;-73
2023/03/29 08:20:05;;;;;;;7.68;3.53;;;10.20;99.90;;;;;;4999342;28;20036;-73
2023/03/29 08:22:31;;;;;;;9.10;3.65;;;10.20;99.90;;;;;;4997172;28;20069;-73
2023/03/29 08:24:57;;;;;;;6.43;2.55;;;10.20;99.90;;;;;;4998259;28;20592;-75
2023/03/29 08:27:23;;;;;;;6.63;2.75;;;10.30;99.90;;;;;;4998830;28;20107;-73
2023/03/29 08:29:49;;;;;;;4.85;2.38;;;10.40;99.90;;;;;;4999301;28;20064;-74
2023/03/29 08:32:15;;;;;;;8.68;2.80;;;10.50;99.90;;;;;;5000334;28;20124;-73
2023/03/29 08:34:40;;;;;;;7.53;3.00;;;10.50;99.90;;;;;;5015435;28;20046;-72
2023/03/29 08:37:07;;;;;;;5.60;2.80;;;10.50;99.90;;;;;;4997751;28;20049;-73
2023/03/29 08:39:32;;;;;;;5.85;2.63;;;10.60;99.90;;;;;;4998090;28;20045;-72
2023/03/29 08:42:28;;;;;;;6.90;2.20;;;10.70;99.90;;;;;;4999334;28;20042;-73
2023/03/29 08:45:11;;;;;;;12.20;2.90;;;10.80;99.90;;;;;;5002610;28;20033;-72
2023/03/29 08:47:49;;;;;;;6.88;2.90;;;10.80;99.90;;;;;;4998305;28;20137;-73
2023/03/29 08:50:17;;;;;;;6.57;3.05;;;10.90;99.90;;;;;;5000162;28;20066;-73
2023/03/29 08:53:09;;;;;;;6.78;3.03;;;11.00;99.90;;;;;;5000625;28;20634;-74
2023/03/29 08:55:44;;;;;;;7.53;3.25;;;10.90;99.90;;;;;;5000188;28;20498;-72
2023/03/29 08:58:17;;;;;;;6.40;2.92;;;10.90;99.90;;;;;;5000389;28;20088;-72
2023/03/29 09:01:07;;;;;;;9.52;3.75;;;11.00;99.90;;;;;;4998811;28;20818;-73
2023/03/29 09:04:05;;;;;;;7.28;2.60;;;11.10;99.90;;;;;;4997893;28;20453;-74
2023/03/29 09:06:30;;;;;;;7.70;3.33;;;11.40;99.90;;;;;;4985973;28;20172;-72
2023/03/29 09:08:56;;;;;;;6.93;3.08;;;11.40;99.90;;;;;;4998309;28;20120;-72
2023/03/29 09:11:48;;;;;;;8.70;3.35;;;11.50;99.90;;;;;;4999075;28;20145;-72
2023/03/29 09:14:56;;;;;;;8.88;3.30;;;11.70;99.90;;;;;;4995931;28;20038;-72
2023/03/29 09:17:36;;;;;;;6.93;2.85;;;11.80;99.90;;;;;;4997276;28;20045;-72
2023/03/29 09:20:05;;;;;;;8.85;3.05;;;11.80;99.90;;;;;;4999018;28;20037;-73
2023/03/29 09:23:01;;;;;;;9.93;3.00;;;11.90;99.90;;;;;;4998740;28;20057;-72
2023/03/29 09:25:56;;;;;;;6.80;3.03;;;11.90;99.90;;;;;;4998494;28;20128;-72
2023/03/29 09:28:37;;;;;;;9.07;3.20;;;12.00;99.90;;;;;;5015970;28;20034;-73
2023/03/29 09:31:05;;;;;;;10.23;3.25;;;11.90;99.90;;;;;;5001813;28;20435;-72
2023/03/29 09:33:43;;;;;;;5.72;2.80;;;11.90;99.90;;;;;;5005129;28;20626;-73
2023/03/29 09:36:37;;;;;;;10.02;2.75;;;11.90;99.90;;;;;;5004377;28;20034;-74
2023/03/29 09:39:04;;;;;;;6.72;2.90;;;12.00;99.90;;;;;;5003483;28;20038;-73
2023/03/29 09:41:32;;;;;;;8.07;3.70;;;12.00;99.90;;;;;;5004772;28;20064;-73
2023/03/29 09:44:01;;;;;;;12.10;3.58;;;12.20;99.90;;;;;;5003770;28;20058;-72
2023/03/29 09:46:36;;;;;;;10.85;3.25;;;12.10;99.90;;;;;;5001334;28;20026;-72
2023/03/29 09:49:05;;;;;;;9.05;3.85;;;12.20;99.90;;;;;;5002754;28;20040;-72
2023/03/29 09:51:33;;;;;;;8.35;3.35;;;12.30;99.90;;;;;;5003524;28;20050;-72
2023/03/29 09:53:59;;;;;;;8.25;3.05;;;12.20;99.90;;;;;;5004745;28;20441;-72
2023/03/29 09:56:26;;;;;;;11.18;3.35;;;12.30;99.90;;;;;;5002919;28;20026;-72
2023/03/29 09:58:51;;;;;;;7.38;3.20;;;12.30;99.90;;;;;;5004862;28;20498;-73
2023/03/29 10:01:17;;;;;;;7.55;3.35;;;12.40;99.90;;;;;;5005381;28;20041;-72
2023/03/29 10:03:52;;;;;;;10.23;3.80;;;12.50;99.90;;;;;;5003170;28;20026;-72
2023/03/29 10:06:20;;;;;;;10.80;3.28;;;12.60;99.90;;;;;;5004632;28;20107;-72
2023/03/29 10:08:51;;;;;;;10.05;3.25;;;12.70;99.90;;;;;;5004841;28;20498;-72
2023/03/29 10:11:22;;;;;;;9.75;3.05;;;12.60;99.90;;;;;;5002378;28;20045;-73
2023/03/29 10:13:53;;;;;;;7.68;3.10;;;12.60;99.90;;;;;;5000980;28;20100;-73
2023/03/29 10:16:27;;;;;;;9.18;3.67;;;12.50;99.90;;;;;;5006708;28;20041;-73
2023/03/29 10:18:53;;;;;;;9.82;3.88;;;12.50;99.90;;;;;;5002385;28;20138;-76
2023/03/29 10:21:19;;;;;;;8.95;3.45;;;12.50;99.90;;;;;;5002411;28;20533;-73
2023/03/29 10:23:46;;;;;;;7.55;3.22;;;12.60;99.90;;;;;;5003733;28;20116;-72
2023/03/29 10:26:30;;;;;;;8.60;3.70;;;12.70;99.90;;;;;;4998475;28;20116;-72
2023/03/29 10:28:59;;;;;;;8.35;2.80;;;12.70;99.90;;;;;;5003925;28;20065;-72
2023/03/29 10:31:27;;;;;;;6.60;3.13;;;12.80;99.90;;;;;;5000176;28;20034;-72
2023/03/29 10:33:56;;;;;;;9.02;3.22;;;12.90;99.90;;;;;;5001843;28;20048;-73
2023/03/29 10:36:25;;;;;;;6.95;3.13;;;12.80;99.90;;;;;;5002074;28;20041;-72
2023/03/29 10:38:52;;;;;;;7.95;3.22;;;12.70;99.90;;;;;;5001461;28;20049;-72
2023/03/29 10:41:20;;;;;;;9.25;3.55;;;12.70;99.90;;;;;;4999615;28;20034;-71
2023/03/29 10:43:49;;;;;;;9.90;3.03;;;12.70;99.90;;;;;;5001708;28;21056;-72
2023/03/29 10:46:26;;;;;;;8.15;2.50;;;12.80;99.90;;;;;;5002434;28;20034;-72
2023/03/29 10:49:04;;;;;;;6.93;3.08;;;12.80;99.90;;;;;;5000401;28;20108;-72
2023/03/29 10:51:32;;;;;;;5.70;2.65;;;12.80;99.90;;;;;;4999835;28;20121;-71
2023/03/29 10:53:58;;;;;;;5.78;2.67;;;12.80;99.90;;;;;;5002297;28;20037;-72
2023/03/29 10:56:38;;;;;;;7.85;2.90;;;12.70;99.90;;;;;;5002426;28;20140;-73
2023/03/29 10:59:21;;;;;;;;;;;12.60;99.90;;;;;;5011320;28;20045;-72
2023/03/29 11:02:13;;;;;;;6.95;3.30;;;12.50;99.90;;;;;;4999961;28;19944;-73
2023/03/29 11:05:01;;;;;;;8.52;3.53;;;12.40;99.90;;;;;;5001307;28;20117;-72
2023/03/29 11:07:31;;;;;;;8.77;3.40;;;12.40;99.90;;;;;;5016048;28;20600;-73
2023/03/29 11:10:15;;;;;;;5.78;2.95;;;12.40;99.90;;;;;;5002135;28;20132;-71
2023/03/29 11:12:54;;;;;;;8.85;3.38;;;12.40;99.90;;;;;;4997234;28;20049;-72
2023/03/29 11:15:48;;;;;;;6.72;3.72;;;12.50;99.90;;;;;;4999847;28;20061;-73
2023/03/29 11:18:33;;;;;;;8.65;3.35;;;12.60;99.90;;;;;;4997703;28;20038;-73
2023/03/29 11:21:27;;;;;;;7.32;3.90;;;12.80;99.90;;;;;;5003895;28;20038;-73
2023/03/29 11:24:23;;;;;;;7.72;4.20;;;12.90;99.90;;;;;;4993308;28;20054;-72
2023/03/29 11:27:06;;;;;;;14.75;4.03;;;13.00;99.90;;;;;;4991072;28;20038;-72
2023/03/29 11:29:59;;;;;;;8.50;3.75;;;13.00;99.90;;;;;;5001286;28;20045;-71
2023/03/29 11:32:49;;;;;;;7.32;3.80;;;13.00;99.90;;;;;;4999927;28;20544;-73
2023/03/29 11:35:46;;;;;;;7.07;3.70;;;13.10;99.90;;;;;;5003006;28;20042;-72
2023/03/29 11:38:34;;;;;;;7.45;4.18;;;13.20;99.90;;;;;;4999985;28;20045;-72
2023/03/29 11:41:09;;;;;;;8.05;4.00;;;13.40;99.90;;;;;;5001190;28;20046;-72
2023/03/29 11:43:58;;;;;;;9.43;4.07;;;13.40;99.90;;;;;;5002075;28;20026;-72
2023/03/29 11:46:43;;;;;;;12.70;3.55;;;13.40;99.90;;;;;;4992555;28;20426;-72
2023/03/29 11:49:18;;;;;;;9.18;3.70;;;13.30;99.90;;;;;;4999231;28;20557;-73
2023/03/29 11:51:53;;;;;;;8.77;3.90;;;13.20;99.90;;;;;;5001576;28;20642;-71
2023/03/29 11:54:50;;;;;;;11.60;4.40;;;13.10;99.90;;;;;;4999143;28;20042;-73
2023/03/29 11:57:37;;;;;;;10.05;4.10;;;13.00;99.90;;;;;;4997368;28;20915;-72
2023/03/29 12:00:11;;;;;;;5.95;3.60;;;12.90;99.90;;;;;;5001304;28;20053;-72
2023/03/29 12:02:41;;;;;;;9.73;4.38;;;12.80;99.90;;;;;;5001403;28;20495;-73
2023/03/29 12:05:31;;;;;;;8.15;3.90;;;12.80;99.90;;;;;;4998446;28;20091;-71
2023/03/29 12:08:02;;;;;;;8.68;3.60;;;12.70;99.90;;;;;;4999058;28;20022;-73
2023/03/29 12:10:42;;;;;;;8.45;3.35;;;12.60;99.90;;;;;;5002212;28;20046;-73
2023/03/29 12:13:18;;;;;;;10.95;3.85;;;12.50;99.90;;;;;;5012574;28;20045;-72
2023/03/29 12:16:10;;;;;;;8.40;3.92;;;12.40;99.90;;;;;;4998062;28;20049;-74
2023/03/29 12:18:45;;;;;;;11.02;4.35;;;12.30;99.90;;;;;;5002561;28;20686;-73
2023/03/29 12:21:22;;;;;;;9.85;4.15;;;12.20;99.90;;;;;;5001784;28;20070;-75
2023/03/29 12:23:49;;;;;;;8.20;3.63;;;12.20;99.90;;;;;;4998282;28;20041;-73
2023/03/29 12:26:58;;;;;;;10.52;4.45;;;12.10;99.90;;;;;;5001596;28;20036;-73
2023/03/29 12:29:47;;;;;;;10.88;3.97;;;12.10;99.90;;;;;;4998464;28;20076;-72
2023/03/29 12:32:43;;;;;;;7.03;3.67;;;12.20;99.90;;;;;;4998295;28;20029;-73
2023/03/29 12:35:29;;;;;;;6.53;3.28;;;12.20;99.90;;;;;;5001326;28;20042;-73
2023/03/29 12:38:27;;;;;;;6.25;3.05;;;12.20;99.90;;;;;;5000359;28;20041;-73
2023/03/29 12:40:56;;;;;;;4.00;2.55;;;12.30;99.90;;;;;;4998413;28;20033;-74
2023/03/29 12:43:36;;;;;;;7.07;3.35;;;12.40;99.90;;;;;;5001119;28;20537;-72
2023/03/29 12:46:09;;;;;;;7.97;3.13;;;12.50;99.90;;;;;;4998225;28;20049;-72
2023/03/29 12:48:39;;;;;;;7.75;3.10;;;12.60;99.90;;;;;;5000460;28;20026;-72
2023/03/29 12:51:14;;;;;;;6.40;2.65;;;12.70;99.90;;;;;;4996149;28;20041;-71
2023/03/29 12:53:41;;;;;;;9.75;2.92;;;12.70;99.90;;;;;;4999031;28;20038;-72
2023/03/29 12:56:18;;;;;;;10.43;3.97;;;12.90;99.90;;;;;;4999074;28;20038;-72
2023/03/29 12:58:58;;;;;;;5.55;3.67;;;13.10;99.90;;;;;;5005918;28;20038;-72
2023/03/29 13:01:36;;;;;;;7.95;3.00;;;13.30;99.90;;;;;;5004054;28;20066;-72
2023/03/29 13:04:19;;;;;;;6.55;2.67;;;13.40;99.90;;;;;;5003360;28;20574;-73
2023/03/29 13:06:48;;;;;;;8.90;3.53;;;13.40;99.90;;;;;;5001770;28;20096;-73
2023/03/29 13:09:29;;;;;;;6.07;2.78;;;13.50;99.90;;;;;;5017893;28;20042;-73
2023/03/29 13:12:19;;;;;;;8.50;3.13;;;13.60;99.90;;;;;;5018466;28;20741;-73
2023/03/29 13:14:48;;;;;;;;;;;13.60;99.90;;;;;;5003110;28;20100;-73
2023/03/29 13:17:44;;;;;;;4.82;2.30;;;13.80;99.90;;;;;;5006166;28;19917;-73